Time;durP1;ratioP1;P1;durP2;ratioP2;P2;SDS_P1;SDS_P2;PMS_P1;PMS_P2;Temp;Humidity;BMP_temperature;BMP_pressure;BME280_temperature;BME280_humidity;BME280_pressure;Samples;Min_cycle;Max_cycle;Signal;HPM_P1;HPM_P2
2022/04/30 00:00:47;;;;;;;6.03;5.32;;;13.20;99.90;;;;;;5031695;28;20462;-78
2022/04/30 00:03:12;;;;;;;6.60;6.03;;;13.10;99.90;;;;;;5031745;28;20383;-78
2022/04/30 00:05:38;;;;;;;6.47;5.90;;;13.30;99.90;;;;;;5032114;28;20391;-78
2022/04/30 00:08:04;;;;;;;5.90;5.47;;;13.20;99.90;;;;;;5032158;28;20411;-78
2022/04/30 00:10:31;;;;;;;6.22;5.72;;;13.30;99.90;;;;;;5032259;28;20386;-78
2022/04/30 00:12:57;;;;;;;5.30;4.90;;;13.30;99.90;;;;;;5030632;28;20917;-78
2022/04/30 00:15:23;;;;;;;5.60;4.90;;;13.60;99.90;;;;;;5018020;28;20385;-78
2022/04/30 00:17:51;;;;;;;5.30;4.90;;;13.70;99.90;;;;;;5028150;28;20409;-78
2022/04/30 00:20:16;;;;;;;5.22;4.82;;;13.60;99.90;;;;;;5032091;28;20386;-78
2022/04/30 00:22:42;;;;;;;6.50;6.00;;;13.50;99.90;;;;;;5031973;28;20432;-78
2022/04/30 00:25:09;;;;;;;8.07;7.37;;;13.20;99.90;;;;;;5024452;28;20373;-78
2022/04/30 00:27:34;;;;;;;7.25;6.72;;;12.70;99.90;;;;;;5024544;28;20383;-78
2022/04/30 00:30:00;;;;;;;7.57;6.87;;;12.30;99.90;;;;;;5031961;28;20383;-78
2022/04/30 00:32:26;;;;;;;7.07;6.47;;;12.30;99.90;;;;;;5032063;28;20385;-78
2022/04/30 00:34:52;;;;;;;7.30;6.80;;;12.60;99.90;;;;;;5031753;28;20807;-78
2022/04/30 00:37:18;;;;;;;7.40;6.80;;;12.80;99.90;;;;;;5031941;28;20387;-78
2022/04/30 00:39:43;;;;;;;7.57;6.95;;;13.10;99.90;;;;;;5031681;28;20383;-78
2022/04/30 00:42:13;;;;;;;7.33;6.73;;;13.40;99.90;;;;;;5031620;28;20908;-78
2022/04/30 00:44:39;;;;;;;8.20;7.40;;;13.30;99.90;;;;;;5031580;28;20387;-78
2022/04/30 00:47:05;;;;;;;7.95;7.35;;;13.30;99.90;;;;;;5031573;28;20440;-78
2022/04/30 00:49:31;;;;;;;8.15;7.45;;;13.30;99.90;;;;;;5026153;28;20392;-78
2022/04/30 00:52:01;;;;;;;8.40;7.72;;;13.30;99.90;;;;;;5028762;28;20433;-78
2022/04/30 00:54:32;;;;;;;7.82;7.20;;;13.40;99.90;;;;;;5031606;28;20407;-78
2022/04/30 00:57:01;;;;;;;9.53;8.73;;;13.30;99.90;;;;;;5031560;28;20471;-78
2022/04/30 00:59:29;;;;;;;8.02;7.50;;;13.50;99.90;;;;;;5031482;28;20403;-78
2022/04/30 01:01:59;;;;;;;9.07;8.30;;;13.40;99.90;;;;;;5033559;28;20394;-79
2022/04/30 01:04:25;;;;;;;9.45;8.75;;;13.30;99.90;;;;;;5034949;28;20394;-79
2022/04/30 01:06:55;;;;;;;10.15;9.35;;;13.30;99.90;;;;;;5035022;28;20415;-79
2022/04/30 01:09:34;;;;;;;8.95;8.15;;;13.30;99.90;;;;;;5035220;28;20387;-79
2022/04/30 01:12:02;;;;;;;9.40;8.60;;;12.90;99.90;;;;;;5034997;28;21035;-79
2022/04/30 01:14:31;;;;;;;10.30;9.38;;;12.90;99.90;;;;;;5034656;28;20407;-79
2022/04/30 01:17:01;;;;;;;9.63;8.93;;;13.00;99.90;;;;;;5027135;28;20946;-79
2022/04/30 01:19:27;;;;;;;9.18;8.48;;;13.10;99.90;;;;;;5016497;28;20471;-79
2022/04/30 01:21:58;;;;;;;9.75;8.95;;;12.80;99.90;;;;;;5034731;28;20384;-79
2022/04/30 01:24:25;;;;;;;9.43;8.63;;;13.00;99.90;;;;;;5034691;28;20387;-79
2022/04/30 01:26:52;;;;;;;9.23;8.40;;;12.80;99.90;;;;;;5034748;28;20418;-79
2022/04/30 01:29:18;;;;;;;8.50;7.80;;;12.50;99.90;;;;;;5034638;28;20394;-79
2022/04/30 01:37:23;;;;;;;8.33;7.80;;;12.30;99.90;;;;;;5034474;28;20381;-79
2022/04/30 01:39:52;;;;;;;8.10;7.50;;;12.60;99.90;;;;;;5018646;28;20862;-79
2022/04/30 01:42:18;;;;;;;8.50;7.97;;;12.80;99.90;;;;;;5034549;28;20394;-79
2022/04/30 01:44:46;;;;;;;7.80;7.10;;;12.70;99.90;;;;;;5034393;28;20852;-79
2022/04/30 01:47:16;;;;;;;7.93;7.32;;;13.00;99.90;;;;;;5034518;28;20787;-79
2022/04/30 01:49:42;;;;;;;7.80;7.22;;;13.20;99.90;;;;;;5027179;28;20393;-79
2022/04/30 01:52:09;;;;;;;8.05;7.38;;;13.10;99.90;;;;;;5031673;28;20383;-80
2022/04/30 01:54:35;;;;;;;7.90;7.22;;;13.10;99.90;;;;;;5034009;28;20900;-80
2022/04/30 01:57:01;;;;;;;7.95;7.28;;;13.20;99.90;;;;;;5034123;28;20395;-80
2022/04/30 01:59:28;;;;;;;7.80;7.20;;;13.30;99.90;;;;;;5025976;28;20393;-80
2022/04/30 02:01:55;;;;;;;8.00;7.40;;;13.40;99.90;;;;;;5015079;28;20874;-80
2022/04/30 02:04:21;;;;;;;8.40;7.80;;;13.20;99.90;;;;;;5033907;28;20406;-80
2022/04/30 02:06:47;;;;;;;8.45;7.75;;;13.10;99.90;;;;;;5033941;28;20391;-80
2022/04/30 02:09:14;;;;;;;8.70;8.00;;;13.10;99.90;;;;;;5032477;28;20448;-80
2022/04/30 02:11:42;;;;;;;9.00;8.10;;;12.80;99.90;;;;;;5026207;28;20791;-80
2022/04/30 02:14:11;;;;;;;8.65;7.90;;;12.90;99.90;;;;;;5032779;28;20403;-80
2022/04/30 02:16:40;;;;;;;8.27;7.68;;;12.80;99.90;;;;;;5033748;28;20386;-80
2022/04/30 02:19:07;;;;;;;8.13;7.53;;;13.00;99.90;;;;;;5023963;28;20870;-80
2022/04/30 02:21:33;;;;;;;8.68;7.97;;;13.00;99.90;;;;;;5018635;28;20396;-80
2022/04/30 02:24:00;;;;;;;8.27;7.68;;;12.60;99.90;;;;;;5033504;28;20401;-80
2022/04/30 02:26:29;;;;;;;9.13;8.33;;;12.80;99.90;;;;;;5033525;28;20415;-80
2022/04/30 02:28:56;;;;;;;8.70;8.07;;;12.80;99.90;;;;;;5010032;28;20911;-80
2022/04/30 02:31:26;;;;;;;8.57;7.97;;;12.80;99.90;;;;;;5005567;28;20413;-80
2022/04/30 02:33:56;;;;;;;9.70;8.88;;;12.60;99.90;;;;;;5008585;28;20439;-79
2022/04/30 02:36:26;;;;;;;9.20;8.43;;;12.20;99.90;;;;;;5032385;28;20407;-80
2022/04/30 02:38:56;;;;;;;9.45;8.75;;;11.90;99.90;;;;;;5033270;28;20397;-80
2022/04/30 02:41:22;;;;;;;9.02;8.43;;;12.20;99.90;;;;;;5033286;28;20886;-79
2022/04/30 02:43:52;;;;;;;8.95;8.25;;;12.20;99.90;;;;;;5033192;28;20421;-79
2022/04/30 02:46:20;;;;;;;9.32;8.52;;;12.20;99.90;;;;;;5032506;28;20410;-80
2022/04/30 02:48:46;;;;;;;8.95;8.30;;;12.40;99.90;;;;;;5033096;28;20861;-79
2022/04/30 02:51:12;;;;;;;8.93;8.25;;;12.40;99.90;;;;;;5024901;28;20772;-79
2022/04/30 02:53:39;;;;;;;9.15;8.45;;;12.40;99.90;;;;;;5032910;28;20399;-79
2022/04/30 02:56:05;;;;;;;8.95;8.25;;;12.60;99.90;;;;;;5033130;28;20887;-79
2022/04/30 03:01:16;;;;;;;9.57;8.77;;;12.90;99.90;;;;;;5023423;28;20386;-79
2022/04/30 03:03:42;;;;;;;9.23;8.52;;;12.80;99.90;;;;;;5032767;28;20849;-79
2022/04/30 03:06:09;;;;;;;9.23;8.52;;;12.80;99.90;;;;;;5032797;28;20394;-79
2022/04/30 03:08:35;;;;;;;8.95;8.25;;;12.80;99.90;;;;;;5025671;28;20774;-79
2022/04/30 03:11:03;;;;;;;8.98;8.20;;;12.90;99.90;;;;;;5015061;28;20388;-79
2022/04/30 03:13:29;;;;;;;9.25;8.52;;;13.00;99.90;;;;;;5032952;28;20484;-80
2022/04/30 03:15:56;;;;;;;9.43;8.63;;;13.00;99.90;;;;;;5032652;28;20411;-79
2022/04/30 03:23:54;;;;;;;9.40;8.70;;;13.10;99.90;;;;;;5032484;28;20740;-79
2022/04/30 03:26:20;;;;;;;10.20;9.40;;;13.00;99.90;;;;;;5032523;28;20433;-79
2022/04/30 03:28:47;;;;;;;9.75;9.05;;;12.60;99.90;;;;;;5032504;28;20426;-79
2022/04/30 03:31:15;;;;;;;9.32;8.52;;;12.50;99.90;;;;;;5032662;28;20740;-79
2022/04/30 03:33:43;;;;;;;9.38;8.77;;;12.40;99.90;;;;;;5024422;28;20404;-79
2022/04/30 03:36:11;;;;;;;9.75;8.95;;;12.30;99.90;;;;;;5008800;28;20431;-80
2022/04/30 03:38:37;;;;;;;10.00;9.30;;;12.00;99.90;;;;;;5031530;28;20760;-80
2022/04/30 03:41:05;;;;;;;10.93;10.02;;;11.90;99.90;;;;;;5030648;28;20384;-80
2022/04/30 03:43:31;;;;;;;10.70;9.60;;;11.70;99.90;;;;;;5032080;28;20436;-80
2022/04/30 03:45:57;;;;;;;9.85;8.98;;;11.90;99.90;;;;;;5032381;28;20395;-80
2022/04/30 03:48:22;;;;;;;9.83;9.13;;;12.10;99.90;;;;;;5032197;28;20403;-80
2022/04/30 03:50:48;;;;;;;10.40;9.60;;;12.20;99.90;;;;;;5022978;28;20391;-80
2022/04/30 03:53:14;;;;;;;10.52;9.60;;;12.40;99.90;;;;;;5032464;28;20430;-79
2022/04/30 03:55:39;;;;;;;10.90;9.90;;;12.40;99.90;;;;;;5032264;28;20872;-80
2022/04/30 03:58:05;;;;;;;9.90;9.10;;;12.40;99.90;;;;;;5032185;28;20449;-80
2022/04/30 04:00:31;;;;;;;10.23;9.43;;;12.40;99.90;;;;;;5027119;28;20450;-80
2022/04/30 04:02:59;;;;;;;9.40;8.70;;;12.30;99.90;;;;;;5017203;28;20465;-79
2022/04/30 04:05:24;;;;;;;8.98;8.27;;;12.20;99.90;;;;;;5032112;28;20927;-79
2022/04/30 04:07:50;;;;;;;9.45;8.75;;;12.30;99.90;;;;;;5032071;28;20479;-79
2022/04/30 04:10:16;;;;;;;9.05;8.43;;;12.40;99.90;;;;;;5032126;28;20473;-80
2022/04/30 04:12:41;;;;;;;9.70;9.00;;;12.50;99.90;;;;;;5032069;28;20387;-79
2022/04/30 04:17:53;;;;;;;9.20;8.40;;;12.20;99.90;;;;;;5027133;28;20746;-79
2022/04/30 04:20:18;;;;;;;9.67;8.77;;;12.10;99.90;;;;;;5032256;28;20383;-80
2022/04/30 04:22:45;;;;;;;9.35;8.68;;;12.30;99.90;;;;;;5022061;28;20392;-79
2022/04/30 04:27:55;;;;;;;9.63;8.80;;;12.60;99.90;;;;;;5032048;28;20386;-79
2022/04/30 04:30:22;;;;;;;8.55;7.95;;;12.60;99.90;;;;;;5032325;28;20441;-79
2022/04/30 04:32:48;;;;;;;9.10;8.38;;;12.60;99.90;;;;;;5031940;28;20476;-79
2022/04/30 04:35:14;;;;;;;8.93;8.32;;;12.60;99.90;;;;;;5031561;28;20406;-80
2022/04/30 04:37:44;;;;;;;8.65;7.90;;;12.40;99.90;;;;;;5035771;28;20441;-79
2022/04/30 04:40:11;;;;;;;8.95;8.25;;;12.40;99.90;;;;;;5035527;28;20390;-79
2022/04/30 04:42:37;;;;;;;8.50;7.90;;;12.40;99.90;;;;;;5035630;28;20375;-80
2022/04/30 04:45:04;;;;;;;8.30;7.70;;;12.40;99.90;;;;;;5035351;28;20402;-79
2022/04/30 04:47:30;;;;;;;8.85;8.07;;;12.30;99.90;;;;;;5035496;28;20383;-79
2022/04/30 04:49:56;;;;;;;9.07;8.30;;;12.30;99.90;;;;;;5026818;28;20890;-79
2022/04/30 04:52:22;;;;;;;8.90;8.30;;;12.30;99.90;;;;;;5034355;28;20395;-80
2022/04/30 04:54:47;;;;;;;8.90;8.13;;;12.30;99.90;;;;;;5035431;28;20434;-79
2022/04/30 04:57:13;;;;;;;9.38;8.75;;;12.50;99.90;;;;;;5035170;28;20906;-79
2022/04/30 04:59:40;;;;;;;10.02;9.27;;;12.40;99.90;;;;;;5035149;28;20410;-79
2022/04/30 05:02:05;;;;;;;9.77;9.07;;;12.70;99.90;;;;;;5030582;28;20435;-80
2022/04/30 05:04:32;;;;;;;9.13;8.43;;;12.70;99.90;;;;;;5019863;28;20399;-80
2022/04/30 05:06:59;;;;;;;9.07;8.18;;;12.80;99.90;;;;;;5035151;28;20410;-79
2022/04/30 05:09:25;;;;;;;10.02;9.32;;;12.90;99.90;;;;;;5035129;28;20379;-79
2022/04/30 05:11:54;;;;;;;9.25;8.57;;;12.70;99.90;;;;;;5035429;28;20559;-79
2022/04/30 05:14:20;;;;;;;9.38;8.63;;;12.60;99.90;;;;;;5035365;28;20904;-79
2022/04/30 05:16:46;;;;;;;9.07;8.47;;;12.50;99.90;;;;;;5034919;28;20423;-80
2022/04/30 05:19:11;;;;;;;9.90;9.20;;;12.50;99.90;;;;;;5035003;28;20387;-80
2022/04/30 05:21:37;;;;;;;10.00;9.30;;;12.40;99.90;;;;;;5033593;28;20467;-80
2022/04/30 05:24:03;;;;;;;10.00;9.20;;;12.40;99.90;;;;;;5034735;28;20512;-80
2022/04/30 05:26:28;;;;;;;9.67;9.03;;;12.60;99.90;;;;;;5034679;28;20418;-80
2022/04/30 05:28:54;;;;;;;10.00;9.23;;;12.50;99.90;;;;;;5022617;28;20394;-80
2022/04/30 05:31:20;;;;;;;9.80;9.10;;;12.40;99.90;;;;;;5027600;28;20402;-81
2022/04/30 05:33:45;;;;;;;10.15;9.35;;;12.60;99.90;;;;;;5034603;28;20410;-81
2022/04/30 05:36:11;;;;;;;10.55;9.65;;;12.30;99.90;;;;;;5034592;28;20918;-78
2022/04/30 05:38:36;;;;;;;10.23;9.52;;;12.40;99.90;;;;;;5034519;28;20932;-78
2022/04/30 05:41:03;;;;;;;10.60;9.65;;;12.50;99.90;;;;;;5034525;28;20399;-78
2022/04/30 05:43:28;;;;;;;10.63;9.68;;;12.40;99.90;;;;;;5034308;28;20520;-78
2022/04/30 05:45:55;;;;;;;9.80;9.00;;;12.50;99.90;;;;;;5034401;28;20423;-78
2022/04/30 05:48:21;;;;;;;10.52;9.68;;;12.60;99.90;;;;;;5034045;28;20564;-78
2022/04/30 05:50:47;;;;;;;10.10;9.40;;;12.70;99.90;;;;;;5028568;28;20477;-80
2022/04/30 05:53:13;;;;;;;10.90;10.10;;;12.70;99.90;;;;;;5017049;28;20420;-81
2022/04/30 05:55:39;;;;;;;11.60;10.80;;;12.50;99.90;;;;;;5033688;28;20883;-81
2022/04/30 05:58:05;;;;;;;12.75;11.75;;;12.20;99.90;;;;;;5034039;28;20407;-81
2022/04/30 06:00:30;;;;;;;11.80;11.00;;;12.00;99.90;;;;;;5034145;28;20397;-82
2022/04/30 06:02:56;;;;;;;14.05;12.80;;;12.00;99.90;;;;;;5034118;28;20749;-82
2022/04/30 06:05:23;;;;;;;13.77;12.68;;;11.80;99.90;;;;;;5034060;28;20402;-82
2022/04/30 06:07:49;;;;;;;12.90;12.00;;;11.60;99.90;;;;;;5031530;28;20383;-82
2022/04/30 06:10:15;;;;;;;14.15;13.15;;;11.50;99.90;;;;;;5002817;28;20418;-82
2022/04/30 06:12:41;;;;;;;13.70;12.60;;;11.40;99.90;;;;;;5004787;28;20955;-82
2022/04/30 06:15:07;;;;;;;14.90;13.73;;;11.50;99.90;;;;;;5013205;28;20416;-82
2022/04/30 06:17:33;;;;;;;13.63;12.60;;;11.90;99.90;;;;;;5023897;28;20391;-82
2022/04/30 06:19:59;;;;;;;13.35;12.35;;;12.20;99.90;;;;;;5023054;28;20380;-83
2022/04/30 06:22:24;;;;;;;13.23;12.32;;;12.30;99.90;;;;;;5005144;28;20803;-83
2022/04/30 06:24:50;;;;;;;13.98;12.98;;;12.40;99.90;;;;;;5019682;28;20391;-83
2022/04/30 06:27:16;;;;;;;14.15;13.13;;;12.30;99.90;;;;;;5024052;28;20398;-83
2022/04/30 06:29:42;;;;;;;14.23;13.23;;;12.20;99.90;;;;;;5013652;28;20526;-84
2022/04/30 06:32:09;;;;;;;15.07;14.07;;;12.40;99.90;;;;;;5033614;28;20388;-83
2022/04/30 06:34:34;;;;;;;15.57;14.27;;;12.40;99.90;;;;;;5032613;28;20407;-84
2022/04/30 06:37:00;;;;;;;15.27;13.97;;;12.20;99.90;;;;;;5027102;28;20404;-84
2022/04/30 06:39:26;;;;;;;16.63;15.20;;;12.40;99.90;;;;;;5024741;28;20394;-83
2022/04/30 06:41:52;;;;;;;15.67;14.47;;;12.50;99.90;;;;;;5014257;28;20399;-83
2022/04/30 06:44:17;;;;;;;16.07;14.77;;;12.40;99.90;;;;;;5025911;28;20386;-84
2022/04/30 06:46:44;;;;;;;15.10;13.87;;;12.40;99.90;;;;;;5033294;28;20876;-84
2022/04/30 06:49:09;;;;;;;16.23;14.82;;;12.30;99.90;;;;;;5029334;28;20884;-84
2022/04/30 06:51:35;;;;;;;15.63;14.50;;;12.30;99.90;;;;;;5019459;28;20405;-84
2022/04/30 06:59:31;;;;;;;15.60;14.40;;;11.90;99.90;;;;;;5032535;28;20402;-84
2022/04/30 07:02:00;;;;;;;16.05;14.75;;;11.90;99.90;;;;;;5033021;28;20402;-84
2022/04/30 07:04:32;;;;;;;17.10;15.63;;;11.80;99.90;;;;;;5028736;28;20472;-84
2022/04/30 07:06:59;;;;;;;18.92;17.35;;;11.40;99.90;;;;;;5013217;28;20443;-83
2022/04/30 07:09:32;;;;;;;19.92;18.17;;;11.40;99.90;;;;;;5029709;28;20383;-83
2022/04/30 07:12:04;;;;;;;17.13;15.73;;;11.30;99.90;;;;;;5022095;28;20387;-83
2022/04/30 07:14:31;;;;;;;19.17;17.58;;;11.40;99.90;;;;;;5032730;28;20442;-83
2022/04/30 07:16:56;;;;;;;19.23;17.55;;;11.30;99.90;;;;;;5032871;28;20383;-83
2022/04/30 07:19:22;;;;;;;20.27;18.52;;;11.70;99.90;;;;;;5032704;28;20387;-83
2022/04/30 07:21:48;;;;;;;21.40;19.40;;;11.50;99.90;;;;;;5019126;28;20387;-83
2022/04/30 07:24:14;;;;;;;21.77;19.97;;;11.20;99.90;;;;;;5016068;28;20495;-83
2022/04/30 07:26:39;;;;;;;22.30;20.20;;;11.20;99.90;;;;;;5031682;28;20391;-83
2022/04/30 07:29:05;;;;;;;22.52;20.40;;;11.20;99.90;;;;;;5020644;28;20400;-84
2022/04/30 07:31:31;;;;;;;20.45;18.60;;;11.30;99.90;;;;;;5029778;28;20406;-83
2022/04/30 07:33:56;;;;;;;21.33;19.52;;;11.30;99.90;;;;;;5020314;28;20413;-83
2022/04/30 07:36:22;;;;;;;21.88;19.90;;;11.70;99.90;;;;;;5027554;28;20880;-83
2022/04/30 07:38:48;;;;;;;22.02;20.08;;;11.80;99.90;;;;;;5032578;28;20402;-85
2022/04/30 07:41:13;;;;;;;21.13;19.33;;;11.80;99.90;;;;;;5032724;28;20852;-84
2022/04/30 07:43:39;;;;;;;20.75;19.05;;;11.80;99.90;;;;;;5032507;28;20434;-86
2022/04/30 07:46:05;;;;;;;19.65;18.05;;;12.20;99.90;;;;;;5021997;28;20400;-84
2022/04/30 07:48:31;;;;;;;20.47;18.60;;;12.30;99.90;;;;;;5029453;28;20395;-86
2022/04/30 07:51:00;;;;;;;19.10;17.48;;;12.50;99.90;;;;;;5014528;28;20468;-85
2022/04/30 07:53:26;;;;;;;20.42;18.63;;;12.70;99.90;;;;;;5005786;28;20910;-85
2022/04/30 07:55:53;;;;;;;19.73;18.07;;;12.80;99.90;;;;;;5017885;28;20391;-85
2022/04/30 07:58:18;;;;;;;20.90;19.00;;;12.80;99.90;;;;;;5033089;28;20426;-86
2022/04/30 08:00:44;;;;;;;20.13;18.42;;;12.50;99.90;;;;;;5033642;28;20423;-84
2022/04/30 08:03:10;;;;;;;19.20;17.50;;;12.50;99.90;;;;;;5032980;28;20865;-85
2022/04/30 08:05:35;;;;;;;21.13;19.30;;;12.50;99.90;;;;;;5023373;28;20389;-84
2022/04/30 08:08:01;;;;;;;20.83;18.90;;;12.70;99.90;;;;;;5017798;28;20395;-84
2022/04/30 08:10:26;;;;;;;21.20;19.30;;;12.50;99.90;;;;;;5027917;28;20395;-85
2022/04/30 08:12:56;;;;;;;22.23;19.93;;;12.20;99.90;;;;;;5010833;28;20902;-85
2022/04/30 08:15:26;;;;;;;21.63;19.63;;;12.00;99.90;;;;;;4998729;28;20414;-81
2022/04/30 08:17:52;;;;;;;19.77;18.02;;;12.10;99.90;;;;;;5019990;28;20397;-83
2022/04/30 08:20:19;;;;;;;19.92;18.10;;;12.10;99.90;;;;;;5024896;28;20831;-83
2022/04/30 08:22:44;;;;;;;19.10;17.40;;;12.40;99.90;;;;;;5035979;28;20464;-83
2022/04/30 08:25:10;;;;;;;19.50;17.67;;;12.70;99.90;;;;;;5036003;28;20861;-83
2022/04/30 08:27:36;;;;;;;19.00;17.37;;;12.80;99.90;;;;;;5029028;28;20472;-82
2022/04/30 08:30:01;;;;;;;18.30;16.60;;;12.90;99.90;;;;;;5034532;28;20725;-82
2022/04/30 08:32:27;;;;;;;18.77;17.07;;;13.00;99.90;;;;;;5019982;28;20394;-82
2022/04/30 08:34:53;;;;;;;21.08;19.10;;;12.80;99.90;;;;;;5035503;28;20407;-82
2022/04/30 08:37:19;;;;;;;21.25;19.30;;;12.50;99.90;;;;;;5035737;28;20425;-81
2022/04/30 08:39:45;;;;;;;20.90;19.00;;;12.30;99.90;;;;;;5018862;28;20420;-82
2022/04/30 08:42:13;;;;;;;18.77;17.10;;;12.60;99.90;;;;;;5035998;28;20412;-82
2022/04/30 08:44:39;;;;;;;19.00;17.30;;;12.90;99.90;;;;;;5035508;28;20383;-82
2022/04/30 08:47:05;;;;;;;18.17;16.58;;;12.90;99.90;;;;;;5007876;28;20406;-82
2022/04/30 08:49:31;;;;;;;19.33;17.35;;;12.90;99.90;;;;;;5000819;28;20425;-82
2022/04/30 08:51:57;;;;;;;17.83;16.27;;;13.20;99.90;;;;;;5028758;28;20423;-87
2022/04/30 08:54:24;;;;;;;18.92;17.23;;;13.40;99.90;;;;;;5011612;28;20497;-83
2022/04/30 08:56:54;;;;;;;18.20;16.60;;;13.50;99.90;;;;;;5025889;28;20391;-83
2022/04/30 08:59:20;;;;;;;18.27;16.67;;;13.50;99.90;;;;;;5021111;28;20474;-82
2022/04/30 09:02:02;;;;;;;16.83;15.43;;;13.70;99.90;;;;;;5004193;28;20412;-83
2022/04/30 09:04:44;;;;;;;18.57;16.77;;;13.80;99.90;;;;;;4999584;28;20390;-83
2022/04/30 09:07:20;;;;;;;18.23;16.48;;;13.70;99.90;;;;;;5020099;28;20383;-83
2022/04/30 09:10:00;;;;;;;19.97;18.23;;;13.70;99.90;;;;;;5024837;28;20452;-83
2022/04/30 09:12:31;;;;;;;18.00;16.40;;;13.60;99.90;;;;;;5029377;28;20414;-82
2022/04/30 09:14:59;;;;;;;17.85;16.25;;;13.40;99.90;;;;;;5024720;28;20927;-82
2022/04/30 09:17:27;;;;;;;19.30;17.57;;;13.50;99.90;;;;;;4997116;28;20482;-82
2022/04/30 09:20:01;;;;;;;19.05;17.23;;;13.50;99.90;;;;;;4998339;28;20390;-82
2022/04/30 09:22:37;;;;;;;19.17;17.38;;;13.40;99.90;;;;;;4996429;28;20403;-82
2022/04/30 09:25:12;;;;;;;18.50;16.90;;;13.40;99.90;;;;;;5003316;28;20384;-84
2022/04/30 09:28:04;;;;;;;17.35;15.85;;;13.40;99.90;;;;;;5008123;28;20429;-83
2022/04/30 09:30:32;;;;;;;18.48;16.73;;;13.80;99.90;;;;;;5016119;28;20406;-83
2022/04/30 09:33:03;;;;;;;17.60;16.13;;;13.90;99.90;;;;;;4999938;28;20434;-83
2022/04/30 09:38:14;;;;;;;19.02;17.23;;;13.80;99.90;;;;;;4998806;28;20760;-83
2022/04/30 09:40:40;;;;;;;17.63;15.87;;;13.70;99.90;;;;;;5011151;28;20380;-83
2022/04/30 09:43:15;;;;;;;16.50;15.00;;;13.80;99.90;;;;;;5033045;28;20375;-85
2022/04/30 09:45:40;;;;;;;17.90;16.20;;;13.90;99.90;;;;;;5014129;28;20437;-86
2022/04/30 09:53:56;;;;;;;18.23;16.63;;;14.00;99.90;;;;;;4995538;28;20875;-86
2022/04/30 09:53:57;;;;;;;16.60;15.25;;;14.20;99.90;;;;;;5001716;28;20397;-87
2022/04/30 09:56:37;;;;;;;16.67;15.07;;;14.10;99.90;;;;;;5000862;28;20381;-87
2022/04/30 09:59:09;;;;;;;16.77;15.37;;;14.40;99.90;;;;;;5006316;28;20428;-87
2022/04/30 10:01:37;;;;;;;17.08;15.68;;;14.30;99.90;;;;;;5009374;28;20447;-87
2022/04/30 10:04:11;;;;;;;17.63;16.17;;;14.30;99.90;;;;;;5013436;28;20388;-87
2022/04/30 10:06:40;;;;;;;15.63;14.23;;;14.40;99.90;;;;;;5012179;28;20475;-86
2022/04/30 10:09:11;;;;;;;15.73;14.32;;;14.70;99.90;;;;;;5014638;28;20393;-87
2022/04/30 10:11:53;;;;;;;16.15;14.77;;;14.70;99.90;;;;;;5011405;28;20890;-86
2022/04/30 10:14:40;;;;;;;16.33;14.98;;;14.80;99.90;;;;;;5012682;28;20409;-87
2022/04/30 10:17:13;;;;;;;16.73;15.13;;;14.60;99.90;;;;;;5033772;28;20382;-87
2022/04/30 10:20:05;;;;;;;15.60;14.25;;;14.70;99.90;;;;;;5032939;28;20987;-87
2022/04/30 10:22:31;;;;;;;16.00;14.70;;;14.70;99.90;;;;;;5034114;28;20965;-87
2022/04/30 10:24:58;;;;;;;15.38;14.07;;;14.80;99.90;;;;;;5033694;28;20428;-87
2022/04/30 10:27:36;;;;;;;15.48;14.27;;;14.90;99.90;;;;;;5019540;28;20400;-87
2022/04/30 10:30:05;;;;;;;14.63;13.50;;;15.10;99.90;;;;;;5019263;28;21059;-86
2022/04/30 10:32:35;;;;;;;15.70;14.35;;;15.10;99.90;;;;;;5031528;28;20391;-85
2022/04/30 10:35:02;;;;;;;15.53;14.23;;;15.00;99.90;;;;;;5020302;28;20414;-86
2022/04/30 10:37:37;;;;;;;15.13;13.93;;;15.10;99.90;;;;;;5033577;28;20394;-84
2022/04/30 10:40:08;;;;;;;14.80;13.63;;;15.10;99.90;;;;;;5033795;28;20814;-86
2022/04/30 10:42:44;;;;;;;15.45;14.10;;;15.10;99.90;;;;;;5033604;28;20384;-86
2022/04/30 10:45:15;;;;;;;14.68;13.55;;;15.20;99.90;;;;;;5033394;28;20944;-87
2022/04/30 10:47:55;;;;;;;14.32;13.07;;;15.30;99.90;;;;;;5033514;28;20401;-88
2022/04/30 10:50:21;;;;;;;13.70;12.68;;;15.40;99.90;;;;;;5024685;28;20406;-86
2022/04/30 10:52:48;;;;;;;13.68;12.57;;;15.30;99.90;;;;;;5033263;28;20387;-83
2022/04/30 10:55:15;;;;;;;13.82;12.82;;;15.20;99.90;;;;;;5033052;28;20413;-83
2022/04/30 10:57:45;;;;;;;14.25;13.02;;;15.20;99.90;;;;;;5033351;28;20391;-83
2022/04/30 11:00:12;;;;;;;14.32;13.15;;;15.20;99.90;;;;;;5033092;28;20383;-83
2022/04/30 11:02:39;;;;;;;14.15;13.05;;;15.10;99.90;;;;;;5033018;28;20411;-83
2022/04/30 11:05:05;;;;;;;13.90;12.80;;;15.10;99.90;;;;;;5032988;28;20398;-83
2022/04/30 11:07:31;;;;;;;13.88;12.68;;;15.30;99.90;;;;;;5033019;28;20402;-84
2022/04/30 11:09:57;;;;;;;13.18;12.02;;;15.20;99.90;;;;;;5033081;28;20395;-84
2022/04/30 11:12:33;;;;;;;13.20;12.15;;;15.10;99.90;;;;;;5033168;28;20387;-84
2022/04/30 11:14:59;;;;;;;13.52;12.55;;;15.10;99.90;;;;;;5027542;28;20405;-82
2022/04/30 11:17:25;;;;;;;13.35;12.05;;;14.70;99.90;;;;;;5025701;28;20384;-81
2022/04/30 11:19:51;;;;;;;14.95;13.65;;;14.20;99.90;;;;;;5032701;28;20383;-84
2022/04/30 11:22:19;;;;;;;14.32;13.02;;;13.80;99.90;;;;;;5024954;28;20445;-86
2022/04/30 11:24:45;;;;;;;12.38;10.00;;;13.30;99.90;;;;;;5022351;28;20474;-85
2022/04/30 11:27:12;;;;;;;10.55;9.75;;;12.70;99.90;;;;;;5005451;28;20496;-88
2022/04/30 11:29:49;;;;;;;12.20;11.10;;;12.00;99.90;;;;;;5004066;28;20409;-90
2022/04/30 11:32:30;;;;;;;13.83;12.10;;;11.80;99.90;;;;;;5004287;28;20493;-87
2022/04/30 11:35:01;;;;;;;11.95;10.95;;;11.50;99.90;;;;;;5012259;28;20828;-86
2022/04/30 11:37:26;;;;;;;7.77;7.17;;;11.80;99.90;;;;;;5000816;28;20580;-84
2022/04/30 11:39:52;;;;;;;7.50;6.90;;;11.60;99.90;;;;;;4998725;28;20410;-82
2022/04/30 11:42:25;;;;;;;8.38;7.68;;;11.80;99.90;;;;;;5001014;28;20441;-86
2022/04/30 11:44:54;;;;;;;8.63;7.85;;;12.20;99.90;;;;;;5011249;28;20470;-86
2022/04/30 11:47:20;;;;;;;7.30;6.70;;;12.30;99.90;;;;;;5009746;28;20404;-84
2022/04/30 11:49:46;;;;;;;7.35;6.85;;;12.20;99.90;;;;;;5007839;28;20950;-84
2022/04/30 11:52:14;;;;;;;6.70;6.10;;;12.50;99.90;;;;;;5008284;28;20433;-85
2022/04/30 11:54:41;;;;;;;7.40;6.60;;;12.20;99.90;;;;;;5008465;28;20426;-83
2022/04/30 11:57:13;;;;;;;8.45;7.55;;;12.00;99.90;;;;;;4996777;28;20395;-84
2022/04/30 11:59:41;;;;;;;8.68;7.78;;;11.70;99.90;;;;;;4992238;28;20432;-87
2022/04/30 12:02:14;;;;;;;8.15;7.45;;;11.70;99.90;;;;;;4997545;28;20410;-85
2022/04/30 12:04:41;;;;;;;7.25;6.65;;;11.80;99.90;;;;;;5024134;28;20468;-85
2022/04/30 12:07:08;;;;;;;7.00;6.40;;;11.70;99.90;;;;;;5029789;28;20387;-85
2022/04/30 12:09:37;;;;;;;6.93;6.32;;;11.70;99.90;;;;;;5015559;28;20532;-84
2022/04/30 12:12:21;;;;;;;6.45;5.80;;;11.80;99.90;;;;;;5022787;28;20476;-84
2022/04/30 12:14:51;;;;;;;6.40;5.90;;;12.00;99.90;;;;;;5015131;28;20436;-84
2022/04/30 12:17:17;;;;;;;6.53;5.97;;;12.20;99.90;;;;;;5020545;28;20389;-84
2022/04/30 12:24:40;;;;;;;6.50;6.00;;;12.40;99.90;;;;;;5030481;28;20412;-85
2022/04/30 12:25:32;;;;;;;6.60;6.00;;;12.40;99.90;;;;;;5014456;28;20423;-85
2022/04/30 12:27:59;;;;;;;6.75;6.18;;;12.70;99.90;;;;;;5013012;28;20458;-86
2022/04/30 12:30:26;;;;;;;7.30;6.68;;;12.80;99.90;;;;;;5010997;28;20393;-84
2022/04/30 12:33:06;;;;;;;5.80;5.20;;;12.70;99.90;;;;;;5010060;28;20403;-84
2022/04/30 12:35:35;;;;;;;8.95;8.05;;;12.70;99.90;;;;;;5011680;28;20770;-84
2022/04/30 12:38:08;;;;;;;7.97;7.23;;;12.80;99.90;;;;;;5019308;28;20385;-85
2022/04/30 12:40:41;;;;;;;6.78;6.35;;;13.00;99.90;;;;;;5031749;28;20379;-84
2022/04/30 12:43:07;;;;;;;5.97;5.57;;;13.30;99.90;;;;;;5031993;28;20438;-84
2022/04/30 12:45:33;;;;;;;6.57;6.07;;;13.20;99.90;;;;;;5031633;28;20423;-84
2022/04/30 12:48:00;;;;;;;5.80;5.40;;;13.40;99.90;;;;;;5031633;28;20452;-84
2022/04/30 12:50:26;;;;;;;6.43;5.90;;;13.50;99.90;;;;;;5023201;28;20930;-84
2022/04/30 12:52:53;;;;;;;7.65;6.95;;;13.10;99.90;;;;;;5030593;28;20482;-84
2022/04/30 12:55:18;;;;;;;6.60;5.90;;;13.10;99.90;;;;;;5031706;28;20407;-84
2022/04/30 12:57:45;;;;;;;5.13;4.72;;;13.10;99.90;;;;;;5033321;28;20467;-84
2022/04/30 13:00:12;;;;;;;4.80;4.40;;;13.20;99.90;;;;;;5035571;28;20383;-84
2022/04/30 13:02:39;;;;;;;5.55;5.07;;;13.20;99.90;;;;;;5033885;28;20525;-83
2022/04/30 13:05:08;;;;;;;5.10;4.70;;;13.30;99.90;;;;;;5035248;28;20382;-83
2022/04/30 13:07:38;;;;;;;9.68;8.88;;;13.40;99.90;;;;;;5035040;28;20474;-84
2022/04/30 13:15:33;;;;;;;7.43;6.88;;;13.30;99.90;;;;;;5034895;28;20461;-84
2022/04/30 13:17:59;;;;;;;7.47;6.97;;;13.30;99.90;;;;;;5034840;28;20749;-83
2022/04/30 13:20:25;;;;;;;7.83;7.20;;;13.50;99.90;;;;;;5034865;28;20421;-83